createdAt,value
2023-04-05T00:01:57.079Z,7.10
2023-04-05T00:04:25.892Z,7.00
2023-04-05T00:06:54.424Z,6.40
2023-04-05T00:09:22.380Z,6.90
2023-04-05T00:11:50.388Z,5.50
2023-04-05T00:14:18.721Z,6.70
2023-04-05T00:16:46.903Z,8.70
2023-04-05T00:19:15.504Z,6.90
2023-04-05T00:21:43.443Z,7.50
2023-04-05T00:24:15.577Z,6.80
2023-04-05T00:26:47.769Z,7.80
2023-04-05T00:29:15.766Z,8.20
2023-04-05T00:31:43.967Z,7.00
2023-04-05T00:34:12.628Z,6.60
2023-04-05T00:36:40.551Z,6.90
2023-04-05T00:39:08.666Z,6.50
2023-04-05T00:41:38.046Z,5.70
2023-04-05T00:44:07.881Z,6.90
2023-04-05T00:46:38.837Z,7.00
2023-04-05T00:49:07.077Z,6.50
2023-04-05T00:51:35.102Z,6.30
2023-04-05T00:54:03.568Z,5.70
2023-04-05T00:56:32.317Z,6.00
2023-04-05T00:59:06.265Z,6.40
2023-04-05T01:01:34.656Z,5.50
2023-04-05T01:04:03.827Z,6.20
2023-04-05T01:06:53.907Z,6.30
2023-04-05T01:09:50.266Z,6.40
2023-04-05T01:12:19.777Z,7.10
2023-04-05T01:14:50.341Z,5.50
2023-04-05T01:17:30.405Z,5.40
2023-04-05T01:20:00.489Z,5.70
2023-04-05T01:22:38.160Z,5.90
2023-04-05T01:25:37.829Z,5.40
2023-04-05T01:28:43.731Z,8.50
2023-04-05T01:31:34.442Z,8.00
2023-04-05T01:34:07.095Z,6.80
2023-04-05T01:36:44.078Z,5.40
2023-04-05T01:39:13.284Z,5.80
2023-04-05T01:41:41.315Z,5.80
2023-04-05T01:44:10.570Z,6.10
2023-04-05T01:46:38.661Z,6.50
2023-04-05T01:49:07.177Z,6.60
2023-04-05T01:51:35.887Z,6.80
2023-04-05T01:54:03.945Z,8.00
2023-04-05T01:56:33.282Z,5.80
2023-04-05T01:59:01.224Z,6.50
2023-04-05T02:01:29.754Z,7.70
2023-04-05T02:04:01.868Z,6.10
2023-04-05T02:06:32.512Z,6.10
2023-04-05T02:09:05.635Z,6.10
2023-04-05T02:11:33.710Z,7.60
2023-04-05T02:14:08.805Z,6.80
2023-04-05T02:16:38.455Z,5.80
2023-04-05T02:19:11.056Z,4.50
2023-04-05T02:21:41.032Z,6.10
2023-04-05T02:24:09.154Z,8.30
2023-04-05T02:26:37.311Z,5.00
2023-04-05T02:29:07.482Z,6.50
2023-04-05T02:31:35.719Z,5.20
2023-04-05T02:34:03.859Z,5.30
2023-04-05T02:36:36.906Z,5.80
2023-04-05T02:39:05.014Z,5.50
2023-04-05T02:41:34.525Z,5.10
2023-04-05T02:44:02.861Z,4.60
2023-04-05T02:46:32.199Z,5.50
2023-04-05T02:49:01.113Z,6.40
2023-04-05T02:51:30.630Z,7.20
2023-04-05T02:53:58.971Z,4.60
2023-04-05T02:56:27.198Z,10.00
2023-04-05T02:58:56.518Z,5.60
2023-04-05T03:01:25.788Z,4.90
2023-04-05T03:03:55.304Z,6.40
2023-04-05T03:06:23.531Z,4.20
2023-04-05T03:08:56.108Z,4.20
2023-04-05T03:11:26.380Z,4.30
2023-04-05T03:14:05.704Z,4.80
2023-04-05T03:19:36.200Z,4.40
2023-04-05T03:22:14.913Z,4.00
2023-04-05T03:24:43.528Z,4.00
2023-04-05T03:27:15.299Z,4.20
2023-04-05T03:30:10.028Z,3.70
2023-04-05T03:32:42.694Z,3.70
2023-04-05T03:35:19.297Z,4.60
2023-04-05T03:37:48.523Z,4.40
2023-04-05T03:40:16.733Z,4.90
2023-04-05T03:42:45.605Z,3.20
2023-04-05T03:45:14.654Z,2.90
2023-04-05T03:47:45.768Z,3.00
2023-04-05T03:50:13.857Z,3.40
2023-04-05T03:52:42.317Z,5.60
2023-04-05T03:55:11.712Z,4.60
2023-04-05T03:57:40.717Z,3.50
2023-04-05T04:00:20.254Z,2.90
2023-04-05T04:03:09.764Z,3.00
2023-04-05T04:05:42.083Z,4.00
2023-04-05T04:08:13.688Z,3.00
2023-04-05T04:10:42.122Z,5.10
2023-04-05T04:13:23.443Z,2.70
2023-04-05T04:16:01.429Z,2.60
2023-04-05T04:18:39.383Z,3.70
2023-04-05T04:21:53.331Z,3.40
2023-04-05T04:25:04.848Z,3.20
2023-04-05T04:27:56.537Z,3.90
2023-04-05T04:30:46.843Z,2.70
2023-04-05T04:33:28.140Z,2.80
2023-04-05T04:36:18.280Z,3.80
2023-04-05T04:38:59.413Z,3.10
2023-04-05T04:41:59.665Z,2.90
2023-04-05T04:44:54.769Z,2.90
2023-04-05T04:47:45.560Z,3.70
2023-04-05T04:50:20.725Z,3.50
2023-04-05T04:52:49.093Z,2.50
2023-04-05T04:55:26.134Z,2.50
2023-04-05T04:57:55.491Z,3.80
2023-04-05T05:00:24.390Z,3.60
2023-04-05T05:03:13.543Z,3.50
2023-04-05T05:05:46.946Z,3.00
2023-04-05T05:08:21.172Z,3.70
2023-04-05T05:10:53.614Z,2.40
2023-04-05T05:13:22.623Z,2.60
2023-04-05T05:15:50.772Z,2.20
2023-04-05T05:18:21.349Z,2.60
2023-04-05T05:20:52.891Z,2.40
2023-04-05T05:23:23.881Z,3.40
2023-04-05T05:25:58.209Z,2.90
2023-04-05T05:28:30.102Z,2.90
2023-04-05T05:30:58.079Z,2.20
2023-04-05T05:33:28.894Z,5.80
2023-04-05T05:35:56.916Z,3.10
2023-04-05T05:38:25.132Z,3.90
2023-04-05T05:40:57.852Z,2.80
2023-04-05T05:43:26.200Z,3.20
2023-04-05T05:45:54.369Z,2.70
2023-04-05T05:48:22.541Z,2.60
2023-04-05T05:50:50.838Z,2.80
2023-04-05T05:53:18.813Z,3.60
2023-04-05T05:55:46.839Z,3.70
2023-04-05T05:58:16.972Z,2.20
2023-04-05T06:00:44.951Z,3.80
2023-04-05T06:03:15.125Z,2.40
2023-04-05T06:05:51.684Z,2.70
2023-04-05T06:08:19.636Z,3.00
2023-04-05T06:10:49.007Z,3.30
2023-04-05T06:13:17.333Z,2.60
2023-04-05T06:15:50.529Z,2.60
2023-04-05T06:18:23.083Z,2.40
2023-04-05T06:20:51.104Z,2.90
2023-04-05T06:23:20.542Z,2.60
2023-04-05T06:25:51.735Z,2.70
2023-04-05T06:28:19.793Z,2.70
2023-04-05T06:30:48.835Z,2.40
2023-04-05T06:33:17.483Z,1.60
2023-04-05T06:35:46.901Z,3.20
2023-04-05T06:38:15.734Z,2.30
2023-04-05T06:40:44.417Z,4.80
2023-04-05T06:43:13.673Z,3.90
2023-04-05T06:45:43.065Z,2.10
2023-04-05T06:48:12.144Z,2.40
2023-04-05T06:50:42.316Z,2.60
2023-04-05T06:53:11.788Z,1.80
2023-04-05T06:55:42.700Z,1.60
2023-04-05T06:58:10.729Z,2.00
2023-04-05T07:00:39.091Z,4.60
2023-04-05T07:03:26.616Z,3.80
2023-04-05T07:05:57.050Z,3.50
2023-04-05T07:08:31.003Z,4.30
2023-04-05T07:10:59.879Z,4.30
2023-04-05T07:13:28.085Z,4.90
2023-04-05T07:16:01.531Z,6.20
2023-04-05T07:18:30.346Z,8.20
2023-04-05T07:21:03.890Z,6.70
2023-04-05T07:23:34.709Z,3.90
2023-04-05T07:26:08.076Z,3.10
2023-04-05T07:28:36.499Z,3.50
2023-04-05T07:31:06.482Z,2.80
2023-04-05T07:33:36.463Z,3.30
2023-04-05T07:36:05.068Z,3.00
2023-04-05T07:38:34.482Z,3.30
2023-04-05T07:41:03.131Z,2.70
2023-04-05T07:43:31.763Z,2.70
2023-04-05T07:46:04.084Z,4.50
2023-04-05T07:48:33.667Z,5.20
2023-04-05T07:51:07.091Z,3.90
2023-04-05T07:53:37.241Z,4.00
2023-04-05T07:56:14.371Z,4.60
2023-04-05T07:58:44.498Z,4.30
2023-04-05T08:01:12.748Z,3.50
2023-04-05T08:03:42.215Z,4.10
2023-04-05T08:06:12.015Z,3.30
2023-04-05T08:08:41.297Z,6.70
2023-04-05T08:11:11.842Z,4.10
2023-04-05T08:13:43.951Z,5.10
2023-04-05T08:16:12.213Z,3.40
2023-04-05T08:18:42.319Z,3.80
2023-04-05T08:21:10.451Z,3.70
2023-04-05T08:23:38.887Z,4.60
2023-04-05T08:26:07.987Z,4.00
2023-04-05T08:28:36.404Z,3.80
2023-04-05T08:31:07.703Z,3.20
2023-04-05T08:33:36.739Z,4.80
2023-04-05T08:36:08.364Z,6.20
2023-04-05T08:38:38.739Z,3.90
2023-04-05T08:41:08.328Z,4.60
2023-04-05T08:43:59.163Z,4.10
2023-04-05T08:46:27.664Z,4.70
2023-04-05T08:48:56.454Z,4.20
2023-04-05T08:51:26.350Z,4.50
2023-04-05T08:53:54.373Z,3.30
2023-04-05T08:56:27.336Z,3.00
2023-04-05T08:59:01.558Z,3.40
2023-04-05T09:01:31.134Z,3.40
2023-04-05T09:04:14.443Z,5.00
2023-04-05T09:06:43.175Z,4.10
2023-04-05T09:09:13.875Z,6.00
2023-04-05T09:11:43.679Z,4.70
2023-04-05T09:14:12.433Z,3.60
2023-04-05T09:16:46.522Z,4.10
2023-04-05T09:19:15.986Z,4.90
2023-04-05T09:22:06.813Z,3.70
2023-04-05T09:24:43.575Z,4.10
2023-04-05T09:27:15.446Z,4.40
2023-04-05T09:29:49.026Z,5.20
2023-04-05T09:32:21.496Z,5.00
2023-04-05T09:34:52.485Z,5.00
2023-04-05T09:37:28.081Z,5.60
2023-04-05T09:40:04.412Z,6.50
2023-04-05T09:42:45.010Z,6.20
2023-04-05T09:45:15.381Z,5.30
2023-04-05T09:47:57.455Z,6.70
2023-04-05T09:50:25.955Z,6.00
2023-04-05T09:53:07.203Z,5.50
2023-04-05T09:55:36.409Z,5.70
2023-04-05T09:58:04.585Z,5.20
2023-04-05T10:00:32.944Z,5.00
2023-04-05T10:03:01.976Z,6.20
2023-04-05T10:05:32.635Z,6.10
2023-04-05T10:08:02.321Z,6.10
2023-04-05T10:10:30.979Z,5.90
2023-04-05T10:13:01.109Z,6.20
2023-04-05T10:15:31.672Z,5.90
2023-04-05T10:18:08.994Z,5.60
2023-04-05T10:20:39.932Z,6.10
2023-04-05T10:23:22.989Z,6.40
2023-04-05T10:25:54.501Z,6.10
2023-04-05T10:28:37.640Z,6.60
2023-04-05T10:31:36.466Z,4.80
2023-04-05T10:34:07.417Z,6.40
2023-04-05T10:36:40.101Z,5.10
2023-04-05T10:39:18.742Z,5.60
2023-04-05T10:41:53.960Z,7.70
2023-04-05T10:44:26.083Z,4.70
2023-04-05T10:46:55.104Z,9.10
2023-04-05T10:49:35.386Z,6.20
2023-04-05T10:52:04.079Z,6.00
2023-04-05T10:54:37.207Z,5.50
2023-04-05T10:57:10.813Z,5.30
2023-04-05T10:59:44.374Z,4.20
2023-04-05T11:02:14.756Z,5.30
2023-04-05T11:04:45.575Z,6.10
2023-04-05T11:07:17.635Z,5.30
2023-04-05T11:10:00.469Z,5.40
2023-04-05T11:12:47.346Z,7.40
2023-04-05T11:15:34.243Z,7.80
2023-04-05T11:18:17.857Z,5.90
2023-04-05T11:20:53.247Z,6.60
2023-04-05T11:23:23.894Z,6.80
2023-04-05T11:25:57.905Z,7.80
2023-04-05T11:28:31.836Z,6.10
2023-04-05T11:31:23.065Z,7.20
2023-04-05T11:33:57.278Z,7.20
2023-04-05T11:36:48.194Z,6.50
2023-04-05T11:39:19.351Z,6.60
2023-04-05T11:41:54.890Z,7.30
2023-04-05T11:44:24.695Z,6.90
2023-04-05T11:46:53.663Z,6.60
2023-04-05T11:49:26.163Z,7.40
2023-04-05T11:51:54.500Z,9.00
2023-04-05T11:54:32.923Z,8.70
2023-04-05T11:57:02.207Z,8.20
2023-04-05T11:59:35.006Z,7.30
2023-04-05T12:02:06.493Z,7.70
2023-04-05T12:04:36.474Z,8.60
2023-04-05T12:07:14.985Z,8.50
2023-04-05T12:10:02.114Z,9.20
2023-04-05T12:12:38.863Z,9.30
2023-04-05T12:15:08.869Z,11.00
2023-04-05T12:17:45.875Z,9.30
2023-04-05T12:20:16.621Z,8.60
2023-04-05T12:22:45.864Z,8.90
2023-04-05T12:25:13.915Z,8.20
2023-04-05T12:27:41.988Z,8.50
2023-04-05T12:30:16.231Z,9.00
2023-04-05T12:32:53.061Z,9.10
2023-04-05T12:35:25.214Z,7.50
2023-04-05T12:37:53.646Z,10.80
2023-04-05T12:40:25.222Z,8.00
2023-04-05T12:42:53.305Z,8.90
2023-04-05T12:45:23.553Z,8.20
2023-04-05T12:47:59.294Z,8.90
2023-04-05T12:50:29.169Z,8.50
2023-04-05T12:53:01.312Z,8.80
2023-04-05T12:55:31.873Z,10.90
2023-04-05T12:58:06.003Z,10.30
2023-04-05T13:00:34.672Z,9.10
2023-04-05T13:03:03.542Z,8.20
2023-04-05T13:05:36.898Z,7.60
2023-04-05T13:08:05.751Z,8.80
2023-04-05T13:10:33.836Z,10.80
2023-04-05T13:13:02.016Z,7.90
2023-04-05T13:15:30.682Z,10.00
2023-04-05T13:17:59.113Z,10.20
2023-04-05T13:20:30.034Z,8.50
2023-04-05T13:22:58.093Z,9.20
2023-04-05T13:25:28.666Z,9.40
2023-04-05T13:27:59.775Z,9.90
2023-04-05T13:30:28.112Z,8.10
2023-04-05T13:32:58.982Z,8.50
2023-04-05T13:35:27.197Z,23.40
2023-04-05T13:37:55.824Z,10.00
2023-04-05T13:40:24.134Z,8.20
2023-04-05T13:42:52.424Z,9.60
2023-04-05T13:45:20.706Z,9.20
2023-04-05T13:47:48.795Z,8.10
2023-04-05T13:50:16.840Z,10.30
2023-04-05T13:52:46.113Z,9.20
2023-04-05T13:55:14.178Z,7.90
2023-04-05T13:57:43.733Z,7.80
2023-04-05T14:00:14.947Z,10.10
2023-04-05T14:02:44.348Z,8.80
2023-04-05T14:05:15.388Z,7.80
2023-04-05T14:07:43.692Z,9.40
2023-04-05T14:10:13.671Z,8.60
2023-04-05T14:12:42.788Z,9.40
2023-04-05T14:15:11.586Z,8.30
2023-04-05T14:17:48.421Z,11.80
2023-04-05T14:20:17.266Z,8.20
2023-04-05T14:22:45.608Z,10.30
2023-04-05T14:25:15.916Z,8.30
2023-04-05T14:27:44.234Z,9.60
2023-04-05T14:30:12.993Z,9.00
2023-04-05T14:32:43.869Z,8.50
2023-04-05T14:35:11.904Z,10.00
2023-04-05T14:37:39.850Z,10.10
2023-04-05T14:40:08.690Z,10.10
2023-04-05T14:42:48.320Z,9.50
2023-04-05T14:45:18.373Z,9.30
2023-04-05T14:47:46.648Z,9.10
2023-04-05T14:50:21.375Z,9.50
2023-04-05T14:52:49.602Z,10.40
2023-04-05T14:55:19.722Z,10.30
2023-04-05T14:57:48.411Z,8.80
2023-04-05T15:00:17.820Z,9.80
2023-04-05T15:03:04.265Z,10.90
2023-04-05T15:05:33.474Z,10.30
2023-04-05T15:08:01.547Z,9.80
2023-04-05T15:10:39.375Z,11.10
2023-04-05T15:13:10.319Z,10.50
2023-04-05T15:15:38.366Z,11.00
2023-04-05T15:18:20.549Z,10.60
2023-04-05T15:20:51.719Z,9.90
2023-04-05T15:23:19.708Z,9.40
2023-04-05T15:25:48.229Z,10.40
2023-04-05T15:28:16.510Z,11.10
2023-04-05T15:30:46.675Z,13.80
2023-04-05T15:33:14.712Z,11.70
2023-04-05T15:35:42.641Z,12.40
2023-04-05T15:38:11.288Z,10.40
2023-04-05T15:40:40.327Z,11.60
2023-04-05T15:43:08.276Z,11.60
2023-04-05T15:45:37.528Z,10.70
2023-04-05T15:48:08.157Z,11.90
2023-04-05T15:50:36.647Z,12.40
2023-04-05T15:53:04.791Z,12.90
2023-04-05T15:55:37.011Z,12.70
2023-04-05T15:58:05.461Z,11.30
2023-04-05T16:00:34.430Z,12.00
2023-04-05T16:03:03.557Z,11.40
2023-04-05T16:05:31.929Z,10.50
2023-04-05T16:08:01.718Z,11.80
2023-04-05T16:10:30.034Z,14.60
2023-04-05T16:13:01.988Z,13.50
2023-04-05T16:15:32.694Z,12.90
2023-04-05T16:18:01.120Z,11.90
2023-04-05T16:20:30.280Z,12.80
2023-04-05T16:22:59.042Z,12.70
2023-04-05T16:25:29.385Z,12.90
2023-04-05T16:27:58.473Z,14.60
2023-04-05T16:30:27.010Z,13.60
2023-04-05T16:32:55.290Z,12.90
2023-04-05T16:35:25.729Z,13.30
2023-04-05T16:37:54.285Z,12.50
2023-04-05T16:40:23.348Z,15.20
2023-04-05T16:42:51.509Z,15.80
2023-04-05T16:45:19.915Z,13.90
2023-04-05T16:47:48.590Z,15.60
2023-04-05T16:50:16.853Z,17.90
2023-04-05T16:52:45.973Z,16.10
2023-04-05T16:55:14.318Z,16.60
2023-04-05T16:57:44.299Z,15.60
2023-04-05T17:00:15.374Z,17.20
2023-04-05T17:02:44.532Z,15.00
2023-04-05T17:05:13.600Z,16.20
2023-04-05T17:07:44.622Z,16.10
2023-04-05T17:10:12.681Z,17.90
2023-04-05T17:12:54.002Z,14.60
2023-04-05T17:15:22.880Z,15.70
2023-04-05T17:17:52.145Z,18.70
2023-04-05T17:20:20.186Z,16.40
2023-04-05T17:22:50.374Z,17.80
2023-04-05T17:25:18.447Z,15.90
2023-04-05T17:27:47.385Z,17.60
2023-04-05T17:30:16.333Z,16.60
2023-04-05T17:32:52.708Z,19.70
2023-04-05T17:35:21.677Z,18.00
2023-04-05T17:37:50.062Z,17.50
2023-04-05T17:40:20.699Z,19.20
2023-04-05T17:42:49.274Z,18.70
2023-04-05T17:45:17.553Z,15.80
2023-04-05T17:47:47.003Z,18.40
2023-04-05T17:50:15.675Z,17.20
2023-04-05T17:52:46.675Z,19.30
2023-04-05T17:55:14.904Z,17.60
2023-04-05T17:57:46.898Z,18.10
2023-04-05T18:00:15.920Z,19.30
2023-04-05T18:02:48.614Z,21.20
2023-04-05T18:05:18.134Z,21.50
2023-04-05T18:07:46.302Z,20.70
2023-04-05T18:10:14.285Z,19.10
2023-04-05T18:12:42.553Z,19.20
2023-04-05T18:15:17.435Z,21.00
2023-04-05T18:17:48.498Z,20.20
2023-04-05T18:20:18.574Z,23.40
2023-04-05T18:22:50.152Z,23.00
2023-04-05T18:25:20.298Z,20.40
2023-04-05T18:27:50.998Z,20.00
2023-04-05T18:30:20.341Z,22.00
2023-04-05T18:32:53.010Z,24.10
2023-04-05T18:35:22.121Z,22.70
2023-04-05T18:37:50.559Z,19.60
2023-04-05T18:40:20.745Z,21.10
2023-04-05T18:42:49.522Z,23.00
2023-04-05T18:45:18.025Z,20.80
2023-04-05T18:47:46.014Z,20.80
2023-04-05T18:50:14.657Z,22.00
2023-04-05T18:52:43.059Z,23.80
2023-04-05T18:55:15.822Z,19.80
2023-04-05T18:57:44.233Z,22.80
2023-04-05T19:00:13.417Z,22.60
2023-04-05T19:02:46.847Z,21.70
2023-04-05T19:05:15.725Z,23.30
2023-04-05T19:07:46.545Z,23.20
2023-04-05T19:10:14.802Z,22.00
2023-04-05T19:12:45.646Z,22.20
2023-04-05T19:15:14.894Z,19.90
2023-04-05T19:17:43.765Z,23.10
2023-04-05T19:20:11.934Z,22.10
2023-04-05T19:22:40.479Z,23.40
2023-04-05T19:25:09.148Z,26.00
2023-04-05T19:27:37.768Z,24.60
2023-04-05T19:30:07.253Z,25.30
2023-04-05T19:32:41.221Z,23.50
2023-04-05T19:35:09.907Z,23.90
2023-04-05T19:37:39.177Z,24.00
2023-04-05T19:40:07.992Z,24.90
2023-04-05T19:42:36.228Z,24.30
2023-04-05T19:45:08.124Z,25.70
2023-04-05T19:47:37.579Z,23.70
2023-04-05T19:52:51.681Z,21.50
2023-04-05T19:55:32.172Z,21.90
2023-04-05T19:58:01.837Z,23.10
2023-04-05T20:00:39.197Z,22.30
2023-04-05T20:03:42.581Z,25.70
2023-04-05T20:06:14.972Z,22.50
2023-04-05T20:08:45.130Z,22.70
2023-04-05T20:11:16.806Z,26.10
2023-04-05T20:13:48.257Z,22.80
2023-04-05T20:16:19.120Z,21.30
2023-04-05T20:18:48.099Z,24.40
2023-04-05T20:21:21.094Z,27.30
2023-04-05T20:23:49.021Z,21.60
2023-04-05T20:26:17.942Z,19.90
2023-04-05T20:28:53.292Z,23.50
2023-04-05T20:31:24.021Z,23.30
2023-04-05T20:34:14.843Z,26.70
2023-04-05T20:36:49.749Z,23.50
2023-04-05T20:39:24.488Z,21.60
2023-04-05T20:41:52.865Z,23.00
2023-04-05T20:44:24.507Z,21.70
2023-04-05T20:46:54.266Z,22.70
2023-04-05T20:49:22.608Z,24.40
2023-04-05T20:51:51.570Z,23.30
2023-04-05T20:54:21.236Z,22.70
2023-04-05T20:56:49.390Z,23.80
2023-04-05T20:59:17.665Z,24.00
2023-04-05T21:01:47.510Z,20.10
2023-04-05T21:04:18.047Z,21.40
2023-04-05T21:06:46.156Z,23.40
2023-04-05T21:09:14.161Z,24.60
2023-04-05T21:11:42.694Z,22.30
2023-04-05T21:14:15.303Z,23.00
2023-04-05T21:16:43.366Z,21.90
2023-04-05T21:19:11.552Z,25.30
2023-04-05T21:21:41.862Z,25.10
2023-04-05T21:24:09.933Z,24.20
2023-04-05T21:26:38.494Z,24.10
2023-04-05T21:29:07.421Z,21.60
2023-04-05T21:31:38.315Z,21.10
2023-04-05T21:34:06.856Z,22.50
2023-04-05T21:36:39.404Z,20.60
2023-04-05T21:39:07.986Z,23.90
2023-04-05T21:41:38.541Z,22.50
2023-04-05T21:44:08.962Z,21.80
2023-04-05T21:46:40.013Z,18.90
2023-04-05T21:49:09.495Z,19.90
2023-04-05T21:51:38.097Z,23.30
2023-04-05T21:54:07.289Z,21.00
2023-04-05T21:56:37.854Z,20.80
2023-04-05T21:59:06.184Z,22.90
2023-04-05T22:01:36.738Z,20.60
2023-04-05T22:04:07.345Z,23.10
2023-04-05T22:06:35.517Z,22.20
2023-04-05T22:09:03.581Z,22.00
2023-04-05T22:11:32.696Z,21.30
2023-04-05T22:14:02.889Z,20.00
2023-04-05T22:16:30.961Z,21.70
2023-04-05T22:18:59.265Z,20.80
2023-04-05T22:21:27.397Z,23.30
2023-04-05T22:23:55.427Z,20.00
2023-04-05T22:26:23.356Z,19.80
2023-04-05T22:28:51.383Z,23.90
2023-04-05T22:31:19.423Z,21.20
2023-04-05T22:33:48.915Z,19.20
2023-04-05T22:36:17.290Z,21.90
2023-04-05T22:38:45.993Z,22.80
2023-04-05T22:41:16.626Z,21.00
2023-04-05T22:43:47.988Z,19.30
2023-04-05T22:46:16.565Z,22.60
2023-04-05T22:48:47.191Z,22.30
2023-04-05T22:51:15.987Z,20.80
2023-04-05T22:53:44.137Z,23.00
2023-04-05T22:56:17.698Z,22.50
2023-04-05T22:58:46.158Z,22.20
2023-04-05T23:01:14.200Z,20.10
2023-04-05T23:03:42.339Z,23.10
2023-04-05T23:06:10.678Z,24.30
2023-04-05T23:08:38.668Z,22.20
2023-04-05T23:11:09.678Z,24.10
2023-04-05T23:13:41.004Z,21.00
2023-04-05T23:16:08.979Z,22.50
2023-04-05T23:18:39.232Z,21.50
2023-04-05T23:21:07.462Z,22.10
2023-04-05T23:23:36.831Z,24.20
2023-04-05T23:26:05.095Z,23.90
2023-04-05T23:28:33.353Z,19.70
2023-04-05T23:31:01.899Z,21.50
2023-04-05T23:33:33.921Z,21.20
2023-04-05T23:36:02.811Z,20.70
2023-04-05T23:38:31.692Z,20.40
2023-04-05T23:40:59.694Z,22.10
2023-04-05T23:43:27.662Z,21.60
2023-04-05T23:45:55.691Z,21.00
2023-04-05T23:48:29.135Z,23.50
2023-04-05T23:50:57.486Z,22.60
2023-04-05T23:53:25.974Z,20.80
2023-04-05T23:55:57.730Z,22.20
2023-04-05T23:58:25.994Z,18.20
